Time;durP1;ratioP1;P1;durP2;ratioP2;P2;SDS_P1;SDS_P2;PMS_P1;PMS_P2;Temp;Humidity;BMP_temperature;BMP_pressure;BME280_temperature;BME280_humidity;BME280_pressure;Samples;Min_cycle;Max_cycle;Signal;HPM_P1;HPM_P2
2021/05/18 00:00:19;;;;;;;0.30;0.30;;;;;;;13.33;100.00;96645.59;5057557;28;20154;-74
2021/05/18 00:02:44;;;;;;;0.38;0.38;;;;;;;13.33;100.00;96650.13;5073713;28;20084;-74
2021/05/18 00:05:13;;;;;;;0.20;0.20;;;;;;;13.31;100.00;96661.00;5074032;28;20027;-74
2021/05/18 00:07:41;;;;;;;0.17;0.13;;;;;;;13.13;100.00;96659.94;5073831;28;20024;-74
2021/05/18 00:12:53;;;;;;;0.45;0.45;;;;;;;13.10;100.00;96670.94;5076662;28;20509;-73
2021/05/18 00:15:21;;;;;;;0.10;0.10;;;;;;;13.03;100.00;96667.03;5057014;28;20032;-74
2021/05/18 00:17:47;;;;;;;0.10;0.10;;;;;;;12.98;100.00;96671.94;5073545;28;20032;-74
2021/05/18 00:20:16;;;;;;;0.22;0.22;;;;;;;12.90;100.00;96669.06;5056859;28;20062;-74
2021/05/18 00:22:41;;;;;;;0.05;0.05;;;;;;;12.84;100.00;96674.94;5056680;28;20031;-74
2021/05/18 00:25:08;;;;;;;0.63;0.63;;;;;;;12.85;100.00;96695.44;5073573;28;20032;-73
2021/05/18 00:27:34;;;;;;;0.40;0.30;;;;;;;12.78;100.00;96691.56;5073396;28;20016;-74
2021/05/18 00:30:00;;;;;;;0.20;0.20;;;;;;;12.70;100.00;96680.63;5073607;28;20028;-74
2021/05/18 00:32:26;;;;;;;1.42;1.33;;;;;;;12.66;100.00;96676.50;5056841;28;20574;-74
2021/05/18 00:34:55;;;;;;;0.20;0.13;;;;;;;12.60;100.00;96688.59;5073390;28;20109;-74
2021/05/18 00:37:21;;;;;;;0.20;0.20;;;;;;;12.61;100.00;96711.78;5056986;28;20032;-74
2021/05/18 00:39:47;;;;;;;0.10;0.10;;;;;;;12.59;100.00;96712.88;5073198;28;20028;-74
2021/05/18 00:42:18;;;;;;;0.45;0.40;;;;;;;12.57;100.00;96717.50;5056715;28;20588;-73
2021/05/18 00:44:44;;;;;;;1.13;0.93;;;;;;;12.50;100.00;96715.34;5073168;28;20112;-73
2021/05/18 00:47:10;;;;;;;0.80;0.55;;;;;;;12.49;100.00;96712.78;5073464;28;20063;-73
2021/05/18 00:49:37;;;;;;;0.22;0.22;;;;;;;12.55;100.00;96722.16;5073044;28;20486;-73
2021/05/18 00:52:05;;;;;;;0.20;0.20;;;;;;;12.57;100.00;96728.25;5056291;28;20153;-73
2021/05/18 00:54:39;;;;;;;0.03;0.03;;;;;;;12.59;100.00;96720.91;5056592;28;20055;-73
2021/05/18 00:59:49;;;;;;;0.30;0.30;;;;;;;12.60;100.00;96715.44;5075420;28;20050;-74
2021/05/18 01:02:15;;;;;;;0.60;0.47;;;;;;;12.71;100.00;96727.94;5073282;28;20475;-73
2021/05/18 01:04:43;;;;;;;1.75;0.82;;;;;;;12.67;100.00;96730.06;5072506;28;20034;-73
2021/05/18 01:07:09;;;;;;;0.88;0.50;;;;;;;12.67;100.00;96727.38;5073599;28;20077;-74
2021/05/18 01:09:35;;;;;;;0.25;0.20;;;;;;;12.68;100.00;96722.81;5089783;28;20446;-74
2021/05/18 01:12:00;;;;;;;0.00;0.00;;;;;;;12.69;100.00;96725.41;5073480;28;20024;-75
2021/05/18 01:14:26;;;;;;;0.15;0.13;;;;;;;12.68;100.00;96729.06;5073167;28;20509;-75
2021/05/18 01:16:52;;;;;;;0.15;0.15;;;;;;;12.71;100.00;96734.16;5072916;28;20421;-75
2021/05/18 01:19:24;;;;;;;0.17;0.17;;;;;;;12.68;100.00;96722.81;5089623;28;20120;-75
2021/05/18 01:21:49;;;;;;;0.40;0.40;;;;;;;12.65;100.00;96744.53;5089955;28;20469;-75
2021/05/18 01:24:18;;;;;;;0.10;0.10;;;;;;;12.71;100.00;96752.94;5073088;28;20103;-75
2021/05/18 01:26:46;;;;;;;0.22;0.20;;;;;;;12.73;100.00;96759.06;5089410;28;20026;-76
2021/05/18 01:29:11;;;;;;;0.52;0.52;;;;;;;12.77;100.00;96767.66;5073193;28;20032;-75
2021/05/18 01:31:39;;;;;;;0.43;0.43;;;;;;;12.79;100.00;96763.06;5056034;28;20447;-75
2021/05/18 01:34:05;;;;;;;0.40;0.40;;;;;;;12.81;100.00;96761.09;5056066;28;20462;-75
2021/05/18 01:36:32;;;;;;;3.63;0.80;;;;;;;12.89;100.00;96758.59;5072939;28;20020;-75
2021/05/18 01:44:11;;;;;;;0.75;0.38;;;;;;;12.93;100.00;96755.53;5075462;28;20460;-75
2021/05/18 01:46:37;;;;;;;10.88;1.33;;;;;;;12.83;100.00;96740.31;5055922;28;20403;-75
2021/05/18 01:49:06;;;;;;;0.30;0.30;;;;;;;12.88;100.00;96740.81;5072631;28;20031;-75
2021/05/18 01:51:35;;;;;;;0.25;0.20;;;;;;;12.90;100.00;96755.81;5056069;28;20027;-76
2021/05/18 01:54:09;;;;;;;0.25;0.17;;;;;;;12.89;100.00;96759.44;5072349;28;20051;-76
2021/05/18 01:56:44;;;;;;;0.70;0.57;;;;;;;12.91;100.00;96762.03;5055938;28;20078;-75
2021/05/18 01:59:13;;;;;;;0.60;0.60;;;;;;;12.94;100.00;96767.13;5057068;28;20024;-75
2021/05/18 02:01:40;;;;;;;1.27;0.57;;;;;;;12.99;100.00;96760.41;5055791;28;20027;-75
2021/05/18 02:04:06;;;;;;;0.15;0.15;;;;;;;12.97;100.00;96766.88;5072485;28;20028;-75
2021/05/18 02:06:33;;;;;;;0.35;0.35;;;;;;;12.93;100.00;96766.28;5055925;28;20012;-75
2021/05/18 02:08:59;;;;;;;0.80;0.57;;;;;;;12.83;100.00;96764.47;5072546;28;20452;-76
2021/05/18 02:11:25;;;;;;;1.45;0.98;;;;;;;12.79;100.00;96760.38;5055672;28;20016;-75
2021/05/18 02:13:53;;;;;;;0.75;0.20;;;;;;;12.74;100.00;96759.88;5059129;28;20080;-75
2021/05/18 02:16:29;;;;;;;1.75;0.73;;;;;;;12.63;100.00;96759.94;5076381;28;20502;-75
2021/05/18 02:26:44;;;;;;;0.40;0.40;;;;;;;12.23;100.00;96768.56;5078681;28;20572;-75
2021/05/18 02:29:10;;;;;;;0.10;0.10;;;;;;;12.21;100.00;96775.84;5075655;28;20032;-75
2021/05/18 02:31:36;;;;;;;0.40;0.22;;;;;;;12.08;100.00;96767.13;5094077;28;20498;-75
2021/05/18 02:34:01;;;;;;;4.78;1.42;;;;;;;12.09;100.00;96784.06;5058807;28;20501;-75
2021/05/18 02:36:27;;;;;;;2.63;1.42;;;;;;;12.05;100.00;96801.34;5075524;28;20423;-75
2021/05/18 02:38:54;;;;;;;3.90;1.70;;;;;;;11.95;100.00;96798.56;5075432;28;20038;-75
2021/05/18 02:41:20;;;;;;;1.65;1.25;;;;;;;12.00;100.00;96808.91;5092433;28;20092;-75
2021/05/18 02:43:53;;;;;;;0.77;0.77;;;;;;;11.98;100.00;96786.72;5058831;28;20032;-75
2021/05/18 02:49:16;;;;;;;0.60;0.60;;;;;;;12.05;100.00;96788.81;5076634;28;20039;-75
2021/05/18 02:51:44;;;;;;;0.52;0.47;;;;;;;12.01;100.00;96791.84;5061313;28;20035;-75
2021/05/18 02:54:37;;;;;;;1.23;0.80;;;;;;;11.93;100.00;96797.84;5091812;28;20048;-75
2021/05/18 02:57:05;;;;;;;0.45;0.45;;;;;;;11.80;100.00;96805.13;5092555;28;20079;-75
2021/05/18 02:59:31;;;;;;;0.93;0.85;;;;;;;11.83;100.00;96816.47;5075668;28;20035;-75
2021/05/18 03:01:59;;;;;;;0.30;0.30;;;;;;;11.83;100.00;96821.81;5075006;28;20059;-75
2021/05/18 03:04:25;;;;;;;1.83;0.98;;;;;;;11.88;100.00;96818.75;5075325;28;20104;-75
2021/05/18 03:06:52;;;;;;;0.73;0.57;;;;;;;11.80;100.00;96818.53;5058302;28;20431;-75
2021/05/18 03:09:18;;;;;;;0.70;0.70;;;;;;;11.89;100.00;96841.91;5084821;28;20032;-75
2021/05/18 03:11:45;;;;;;;0.95;0.57;;;;;;;11.92;100.00;96841.69;5058160;28;20452;-75
2021/05/18 03:14:12;;;;;;;0.35;0.32;;;;;;;11.96;100.00;96843.16;5074666;28;20407;-76
2021/05/18 03:16:39;;;;;;;0.95;0.60;;;;;;;11.96;100.00;96843.16;5058305;28;20040;-75
2021/05/18 03:19:06;;;;;;;0.57;0.43;;;;;;;11.88;100.00;96837.53;5074567;28;20035;-74
2021/05/18 03:21:31;;;;;;;0.80;0.60;;;;;;;11.88;100.00;96829.47;5091488;28;20508;-74
2021/05/18 03:23:57;;;;;;;0.75;0.40;;;;;;;11.93;100.00;96816.59;5091317;28;20116;-73
2021/05/18 03:26:23;;;;;;;0.30;0.30;;;;;;;11.82;100.00;96797.81;5074649;28;20032;-74
2021/05/18 03:28:56;;;;;;;0.30;0.30;;;;;;;11.67;100.00;96817.72;5092855;28;20031;-75
2021/05/18 03:36:50;;;;;;;0.80;0.70;;;;;;;11.54;100.00;96828.53;5077087;28;20035;-74
2021/05/18 03:39:15;;;;;;;9.93;0.57;;;;;;;11.51;100.00;96810.03;5074329;28;20032;-74
2021/05/18 03:42:02;;;;;;;0.30;0.30;;;;;;;11.53;100.00;96821.50;5057784;28;20035;-75
2021/05/18 03:44:54;;;;;;;0.10;0.10;;;;;;;11.60;100.00;96808.47;5060595;28;20028;-74
2021/05/18 03:53:02;;;;;;;8.52;1.23;;;;;;;11.88;100.00;96835.69;5077120;28;20560;-75
2021/05/18 04:16:59;;;;;;;0.80;0.80;;;;;;;12.99;100.00;96850.81;5076345;28;20039;-75
2021/05/18 04:19:29;;;;;;;1.13;0.85;;;;;;;13.17;100.00;96867.25;5073911;28;20445;-75
2021/05/18 04:51:37;;;;;;;2.55;1.60;;;;;;;14.56;100.00;96904.47;5074993;28;20016;-74
2021/05/18 04:59:45;;;;;;;1.85;1.52;;;;;;;15.49;100.00;96914.94;5075859;28;20490;-75
2021/05/18 05:08:24;;;;;;;2.03;1.25;;;;;;;15.06;100.00;96915.25;5075934;28;20486;-74
2021/05/18 05:16:01;;;;;;;0.30;0.28;;;;;;;18.86;83.31;96937.28;5075836;28;20403;-74
2021/05/18 05:18:26;;;;;;;1.55;1.42;;;;;;;21.27;70.08;96944.03;5072983;28;20028;-74
2021/05/18 05:20:52;;;;;;;0.68;0.55;;;;;;;20.81;68.55;96953.84;5072914;28;20066;-74
2021/05/18 05:23:18;;;;;;;0.63;0.40;;;;;;;22.01;66.62;96954.41;5072963;28;20020;-75
2021/05/18 05:25:44;;;;;;;0.40;0.40;;;;;;;24.32;56.87;96961.44;5056064;28;20395;-73
2021/05/18 05:28:09;;;;;;;1.25;0.75;;;;;;;24.91;52.90;96970.22;5090944;28;20099;-74
2021/05/18 05:30:35;;;;;;;0.50;0.17;;;;;;;24.14;53.18;96965.47;5055920;28;20456;-73
2021/05/18 05:33:01;;;;;;;1.05;0.82;;;;;;;23.30;56.77;96973.34;5090928;28;20414;-74
2021/05/18 05:35:26;;;;;;;0.28;0.28;;;;;;;23.04;56.50;96974.66;5072998;28;20410;-74
2021/05/18 05:37:53;;;;;;;0.57;0.50;;;;;;;23.37;56.48;96985.22;5072815;28;20036;-74
2021/05/18 05:40:19;;;;;;;1.45;0.57;;;;;;;22.33;60.41;96983.31;5073199;28;20024;-74
2021/05/18 05:42:45;;;;;;;0.22;0.22;;;;;;;21.29;62.24;96981.94;5056065;28;20161;-75
2021/05/18 05:45:11;;;;;;;0.40;0.40;;;;;;;22.44;61.83;96990.19;5072810;28;20042;-75
2021/05/18 05:47:36;;;;;;;0.88;0.32;;;;;;;24.34;55.14;96987.53;5075843;28;20035;-75
2021/05/18 05:50:02;;;;;;;0.15;0.15;;;;;;;23.37;57.40;96998.88;5093351;28;20049;-75
2021/05/18 05:52:28;;;;;;;0.70;0.50;;;;;;;24.06;54.06;96992.03;5076270;28;20024;-75
2021/05/18 05:54:53;;;;;;;0.20;0.20;;;;;;;23.23;54.80;96995.94;5076336;28;20044;-75
2021/05/18 05:57:19;;;;;;;0.30;0.30;;;;;;;21.62;61.49;96991.69;5094429;28;20043;-76
2021/05/18 05:59:46;;;;;;;0.52;0.38;;;;;;;22.88;57.22;96991.22;5076269;28;20027;-74
2021/05/18 06:02:12;;;;;;;1.02;0.65;;;;;;;24.30;52.49;96999.06;5076413;28;20046;-74
2021/05/18 06:04:38;;;;;;;0.60;0.60;;;;;;;25.73;48.29;96999.44;5076116;28;20089;-76
2021/05/18 06:07:03;;;;;;;0.30;0.17;;;;;;;26.02;48.19;96997.47;5094293;28;20069;-75
2021/05/18 06:09:29;;;;;;;1.08;0.68;;;;;;;26.44;47.42;97005.44;5094049;28;20066;-75
2021/05/18 06:47:12;;;;;;;1.75;1.05;;;;;;;21.42;60.44;96976.78;5072336;28;20031;-74
2021/05/18 06:49:45;;;;;;;0.85;0.50;;;;;;;21.66;58.92;96976.69;5093630;28;20498;-74
2021/05/18 06:52:11;;;;;;;1.00;0.65;;;;;;;21.28;60.51;96980.25;5059771;28;20036;-75
2021/05/18 06:54:36;;;;;;;0.40;0.40;;;;;;;20.85;63.08;96981.53;5092169;28;20101;-75
2021/05/18 06:57:06;;;;;;;0.43;0.40;;;;;;;20.86;58.96;96970.47;5075194;28;20028;-75
2021/05/18 07:02:00;;;;;;;0.10;0.10;;;;;;;25.61;47.10;96990.09;5075285;28;20031;-75
2021/05/18 07:04:27;;;;;;;0.10;0.10;;;;;;;25.53;45.19;96978.47;5075456;28;20035;-75
2021/05/18 07:07:02;;;;;;;0.20;0.20;;;;;;;24.48;46.43;96972.13;5075118;28;20051;-75
2021/05/18 07:09:28;;;;;;;0.20;0.20;;;;;;;25.89;42.91;96981.81;5077131;28;20063;-75
2021/05/18 07:11:54;;;;;;;2.90;0.45;;;;;;;26.80;40.84;96980.38;5075046;28;20115;-75
2021/05/18 07:14:19;;;;;;;0.43;0.15;;;;;;;28.30;35.70;96984.72;5075272;28;20032;-76
2021/05/18 07:16:45;;;;;;;0.60;0.30;;;;;;;29.51;34.65;96999.97;5106510;28;20089;-76
2021/05/18 07:19:13;;;;;;;0.50;0.30;;;;;;;31.08;31.63;96990.75;5052153;28;20409;-76
2021/05/18 07:21:38;;;;;;;0.30;0.30;;;;;;;32.87;30.50;96998.13;5075112;28;20483;-74
2021/05/18 07:24:09;;;;;;;0.00;0.00;;;;;;;32.71;28.61;96994.22;5071531;28;20028;-74
2021/05/18 07:26:34;;;;;;;0.13;0.13;;;;;;;31.91;30.85;97007.16;5055651;28;20510;-75
2021/05/18 07:29:00;;;;;;;0.38;0.20;;;;;;;30.44;32.05;97000.63;5057915;28;20065;-74
2021/05/18 07:31:25;;;;;;;0.17;0.17;;;;;;;28.49;33.93;97010.47;5074766;28;20119;-74
2021/05/18 07:33:51;;;;;;;0.43;0.43;;;;;;;27.06;38.09;97013.34;5065783;28;20065;-75
2021/05/18 07:36:17;;;;;;;1.58;1.27;;;;;;;25.77;37.93;97000.75;5092785;28;20455;-75
2021/05/18 07:38:43;;;;;;;2.40;0.30;;;;;;;25.39;41.42;97002.16;5072905;28;20515;-74
2021/05/18 07:41:09;;;;;;;1.65;0.57;;;;;;;24.93;41.29;96996.34;5047641;28;20119;-74
2021/05/18 07:43:35;;;;;;;2.65;0.82;;;;;;;24.54;44.07;96987.75;5088052;28;20029;-75
2021/05/18 07:46:03;;;;;;;0.43;0.20;;;;;;;24.59;43.92;96998.94;5057552;28;20444;-74
2021/05/18 07:51:09;;;;;;;0.23;0.23;;;;;;;23.73;42.60;97008.03;5075124;28;20427;-73
2021/05/18 07:59:20;;;;;;;0.22;0.10;;;;;;;22.80;46.46;96994.00;5069036;28;20034;-73
2021/05/18 08:07:20;;;;;;;0.15;0.15;;;;;;;23.70;46.05;97000.19;5077200;28;20494;-76
2021/05/18 08:09:51;;;;;;;0.95;0.95;;;;;;;24.17;42.49;97003.34;5072301;28;20029;-74
2021/05/18 08:12:16;;;;;;;0.30;0.30;;;;;;;24.78;41.43;97004.59;5074762;28;20020;-74
2021/05/18 08:14:48;;;;;;;0.35;0.20;;;;;;;26.35;39.75;97010.28;5073789;28;20510;-74
2021/05/18 08:17:28;;;;;;;0.10;0.10;;;;;;;26.22;36.86;97004.75;5074847;28;20020;-74
2021/05/18 09:34:10;;;;;;;2.47;0.90;;;;;;;24.14;36.72;96983.75;5089027;28;20146;-74
2021/05/18 10:35:50;;;;;;;3.08;1.67;;;;;;;35.64;20.80;96957.38;5093644;28;20032;-76
2021/05/18 10:38:27;;;;;;;5.30;1.20;;;;;;;35.76;18.25;96938.53;5075270;28;20070;-75
2021/05/18 10:41:05;;;;;;;3.92;1.85;;;;;;;35.68;19.94;96944.59;5059323;28;20032;-75
2021/05/18 10:43:31;;;;;;;1.35;0.60;;;;;;;35.00;20.78;96933.44;5075758;28;20376;-75
2021/05/18 10:45:59;;;;;;;2.70;1.45;;;;;;;35.96;21.76;96971.22;5059124;28;20058;-75
2021/05/18 10:48:37;;;;;;;5.85;1.17;;;;;;;33.43;21.35;96961.97;5075236;28;20026;-75
2021/05/18 10:51:33;;;;;;;4.40;1.05;;;;;;;32.46;21.42;96955.75;5075468;28;20036;-75
2021/05/18 10:54:36;;;;;;;3.17;1.05;;;;;;;32.25;21.50;96952.84;5107359;28;20052;-75
2021/05/18 10:57:07;;;;;;;2.63;0.90;;;;;;;33.48;20.81;96963.97;5093544;28;20503;-75
2021/05/18 10:59:43;;;;;;;7.75;1.10;;;;;;;32.99;20.58;96963.69;5075198;28;20027;-75
2021/05/18 11:02:23;;;;;;;7.53;0.90;;;;;;;30.60;22.09;96939.22;5058374;28;20070;-75
2021/05/18 11:05:02;;;;;;;1.95;0.90;;;;;;;31.23;22.71;96954.34;5058457;28;20093;-76
2021/05/18 11:07:39;;;;;;;5.43;0.85;;;;;;;31.65;21.92;96950.44;5058188;28;20020;-75
2021/05/18 11:10:08;;;;;;;8.27;1.23;;;;;;;32.26;22.01;96965.59;5074877;28;20035;-74
2021/05/18 11:12:35;;;;;;;6.50;3.45;;;;;;;32.97;19.84;96952.03;5092996;28;20016;-73
2021/05/18 11:15:00;;;;;;;2.83;1.10;;;;;;;33.30;21.42;96970.63;5075309;28;20028;-73
2021/05/18 11:17:31;;;;;;;3.65;0.80;;;;;;;31.35;19.66;96945.00;5074513;28;20119;-74
2021/05/18 11:20:10;;;;;;;5.85;1.20;;;;;;;29.80;21.87;96947.91;5058135;28;20032;-74
2021/05/18 11:25:28;;;;;;;5.97;0.50;;;;;;;30.92;21.80;96942.53;5089488;28;20051;-74
2021/05/18 11:28:08;;;;;;;1.52;0.47;;;;;;;31.25;22.52;96953.06;5090047;28;20028;-82
2021/05/18 11:30:34;;;;;;;8.13;1.30;;;;;;;30.98;20.99;96946.28;5072870;28;20024;-82
2021/05/18 11:33:00;;;;;;;0.93;0.57;;;;;;;30.27;22.00;96940.75;5056342;28;20042;-82
2021/05/18 11:35:25;;;;;;;7.60;0.75;;;;;;;30.40;23.45;96966.28;5055885;28;20128;-83
2021/05/18 11:38:14;;;;;;;2.45;0.40;;;;;;;29.43;24.45;96964.44;5055995;28;20036;-82
2021/05/18 11:40:58;;;;;;;1.02;0.70;;;;;;;29.59;22.71;96955.56;5072540;28;20042;-82
2021/05/18 11:43:34;;;;;;;2.47;0.50;;;;;;;30.23;22.29;96959.69;5055734;28;20510;-81
2021/05/18 11:46:09;;;;;;;1.85;0.60;;;;;;;29.71;21.95;96946.53;5073509;28;20174;-81
2021/05/18 11:48:36;;;;;;;2.80;0.40;;;;;;;28.06;24.77;96954.38;5063515;28;20024;-81
2021/05/18 11:51:07;;;;;;;0.47;0.47;;;;;;;27.85;25.56;96963.75;5092730;28;20092;-81
2021/05/18 11:53:35;;;;;;;7.18;1.58;;;;;;;28.89;22.52;96964.25;5109669;28;20407;-83
2021/05/18 11:56:00;;;;;;;9.20;0.93;;;;;;;29.70;22.89;96953.97;5092397;28;20478;-82
2021/05/18 11:58:27;;;;;;;7.10;0.80;;;;;;;30.64;21.34;96957.00;5092736;28;20092;-81
2021/05/18 12:01:05;;;;;;;4.72;0.70;;;;;;;31.23;23.01;96960.72;5056013;28;20514;-82
2021/05/18 12:03:31;;;;;;;1.70;0.55;;;;;;;30.85;20.85;96935.44;5071328;28;20035;-82
2021/05/18 12:05:57;;;;;;;5.45;0.70;;;;;;;30.16;22.29;96956.19;5052274;28;20487;-82
2021/05/18 12:08:30;;;;;;;3.55;0.60;;;;;;;28.46;24.83;96973.22;5052227;28;20026;-82
2021/05/18 12:11:13;;;;;;;4.47;0.52;;;;;;;26.04;26.46;96968.78;5068126;28;20025;-82
2021/05/18 12:13:39;;;;;;;3.63;0.70;;;;;;;24.74;28.25;96986.88;5052820;28;20558;-81
2021/05/18 12:16:09;;;;;;;11.80;0.73;;;;;;;23.88;30.45;97003.38;5077885;28;20028;-81
2021/05/18 12:18:36;;;;;;;9.18;0.70;;;;;;;23.80;31.29;97029.97;5051770;28;20373;-81
2021/05/18 12:21:04;;;;;;;3.03;0.68;;;;;;;23.71;33.01;97045.63;5055229;28;20043;-81
2021/05/18 12:23:30;;;;;;;1.95;0.50;;;;;;;23.49;33.79;97054.75;5048884;28;20114;-81
2021/05/18 12:26:08;;;;;;;3.88;0.50;;;;;;;24.22;32.28;97061.03;5089928;28;20150;-82
2021/05/18 12:28:34;;;;;;;6.70;0.98;;;;;;;25.73;32.12;97061.63;5072035;28;20039;-82
2021/05/18 12:31:00;;;;;;;5.82;1.00;;;;;;;27.80;31.46;97062.56;5051749;28;20043;-82
2021/05/18 12:33:37;;;;;;;2.58;1.10;;;;;;;30.18;29.13;97063.59;5043079;28;20065;-82
2021/05/18 12:36:04;;;;;;;1.60;0.90;;;;;;;31.33;26.60;97054.16;5046993;28;20562;-82
2021/05/18 12:38:30;;;;;;;6.63;1.00;;;;;;;32.64;24.51;97047.00;5052942;28;20028;-82
2021/05/18 12:41:05;;;;;;;1.55;0.88;;;;;;;33.52;23.64;97053.94;5051458;28;20031;-83
2021/05/18 12:43:39;;;;;;;3.40;1.13;;;;;;;33.52;24.32;97040.91;5052956;28;20101;-83
2021/05/18 12:46:13;;;;;;;2.58;1.10;;;;;;;32.08;27.74;97047.75;5086084;28;20028;-80
2021/05/18 12:48:41;;;;;;;9.18;1.48;;;;;;;32.42;26.85;97040.44;5052450;28;20016;-80
2021/05/18 12:51:24;;;;;;;3.03;0.90;;;;;;;32.52;25.46;97045.34;5055224;28;20086;-79
2021/05/18 12:54:02;;;;;;;1.02;0.75;;;;;;;31.46;25.94;97031.81;5055032;28;20062;-79
2021/05/18 12:56:31;;;;;;;2.13;1.00;;;;;;;31.04;25.86;97029.09;5099818;28;20527;-79
2021/05/18 12:59:07;;;;;;;7.72;1.00;;;;;;;31.00;27.10;97022.38;5081091;28;20095;-79
2021/05/18 13:01:45;;;;;;;1.85;0.80;;;;;;;31.27;24.86;97017.25;5047109;28;20036;-80
2021/05/18 13:04:12;;;;;;;4.53;0.93;;;;;;;31.39;25.72;97023.63;5083736;28;20032;-80
2021/05/18 13:06:45;;;;;;;2.20;0.70;;;;;;;31.72;25.45;97016.72;5054664;28;20046;-80
2021/05/18 13:09:21;;;;;;;3.22;0.50;;;;;;;31.21;24.45;96990.56;5055150;28;20554;-83
2021/05/18 13:14:59;;;;;;;0.70;0.60;;;;;;;29.94;24.77;97010.16;5074364;28;20039;-80
2021/05/18 13:17:26;;;;;;;7.25;0.80;;;;;;;27.99;28.35;97001.16;5054419;28;20024;-80
2021/05/18 13:20:10;;;;;;;2.53;0.60;;;;;;;27.44;29.23;97014.41;5054535;28;20481;-80
2021/05/18 13:22:38;;;;;;;3.80;0.85;;;;;;;26.92;29.90;97017.13;5057041;28;20024;-80
2021/05/18 13:28:03;;;;;;;8.63;0.80;;;;;;;27.50;30.38;97014.63;5072499;28;20031;-80
2021/05/18 13:30:30;;;;;;;1.88;0.60;;;;;;;26.69;28.38;96994.72;5054539;28;20027;-80
2021/05/18 13:32:56;;;;;;;3.10;1.55;;;;;;;26.06;30.99;96998.72;5071086;28;20077;-81
2021/05/18 13:35:23;;;;;;;4.85;0.77;;;;;;;25.37;32.69;97004.25;5054621;28;20036;-80
2021/05/18 13:37:49;;;;;;;3.88;0.73;;;;;;;25.02;32.88;96989.69;5054261;28;20043;-81
2021/05/18 13:40:16;;;;;;;3.15;0.63;;;;;;;25.30;32.12;96998.72;5054168;28;20027;-80
2021/05/18 13:42:42;;;;;;;2.20;0.60;;;;;;;25.48;32.40;96995.47;5070579;28;20135;-80
2021/05/18 13:45:09;;;;;;;1.08;0.80;;;;;;;25.43;30.45;96987.03;5053713;28;20118;-81
2021/05/18 13:47:34;;;;;;;4.72;0.73;;;;;;;24.92;32.13;97000.09;5087697;28;20028;-80
2021/05/18 13:50:00;;;;;;;3.42;0.77;;;;;;;24.75;32.28;96985.84;5054663;28;20036;-80
2021/05/18 13:52:26;;;;;;;5.82;1.35;;;;;;;24.30;34.78;96980.78;5054443;28;20530;-82
2021/05/18 13:54:52;;;;;;;2.30;1.30;;;;;;;24.26;34.60;96976.75;5087466;28;20070;-82
2021/05/18 13:57:18;;;;;;;3.05;0.80;;;;;;;23.99;35.45;96985.66;5054244;28;20043;-81
2021/05/18 13:59:43;;;;;;;13.43;1.70;;;;;;;23.69;34.12;96984.84;5054252;28;20024;-81
2021/05/18 14:02:09;;;;;;;5.50;0.63;;;;;;;23.46;33.91;96978.66;5053560;28;20032;-81
2021/05/18 14:04:35;;;;;;;3.47;0.70;;;;;;;23.08;34.10;96975.97;5054434;28;20458;-80
2021/05/18 14:07:56;;;;;;;1.42;0.65;;;;;;;23.05;34.75;96976.34;5088396;28;20179;-81
2021/05/18 14:10:22;;;;;;;1.35;0.98;;;;;;;22.94;36.62;96984.16;5061476;28;20056;-81
2021/05/18 14:12:48;;;;;;;3.67;0.60;;;;;;;22.86;36.89;96982.34;5058015;28;20070;-81
2021/05/18 14:15:14;;;;;;;2.00;0.80;;;;;;;23.03;35.16;96975.72;5090870;28;20126;-81
2021/05/18 14:17:39;;;;;;;7.63;2.05;;;;;;;23.06;34.83;96972.59;5091730;28;20122;-80
2021/05/18 14:20:06;;;;;;;3.47;0.75;;;;;;;22.92;34.40;96970.69;5091320;28;20114;-80
2021/05/18 14:22:32;;;;;;;8.95;1.30;;;;;;;23.03;35.35;96972.97;5059197;28;20521;-81
2021/05/18 14:27:29;;;;;;;19.60;1.40;;;;;;;22.90;34.45;96970.03;5091381;28;20036;-81
2021/05/18 14:29:54;;;;;;;1.50;0.80;;;;;;;22.94;33.94;96976.81;5065622;28;20032;-81
2021/05/18 14:32:20;;;;;;;7.93;1.10;;;;;;;22.99;34.83;96978.97;5052863;28;20541;-80
2021/05/18 14:34:46;;;;;;;10.27;0.88;;;;;;;23.07;35.88;96985.19;5090695;28;20034;-81
2021/05/18 14:37:12;;;;;;;7.35;3.13;;;;;;;23.01;35.62;96985.13;5091114;28;20067;-82
2021/05/18 14:44:58;;;;;;;5.88;0.93;;;;;;;22.67;33.67;96975.53;5077044;28;20101;-81
2021/05/18 14:47:26;;;;;;;1.27;0.47;;;;;;;22.69;33.17;96980.81;5073749;28;20028;-81
2021/05/18 14:55:21;;;;;;;2.47;0.73;;;;;;;22.64;33.92;96985.94;5075981;28;20435;-78
2021/05/18 14:57:47;;;;;;;5.82;1.10;;;;;;;22.85;34.97;96980.66;5073090;28;20020;-76
2021/05/18 15:00:14;;;;;;;5.93;1.25;;;;;;;23.03;35.32;96989.34;5072990;28;20063;-77
2021/05/18 15:02:40;;;;;;;3.65;2.63;;;;;;;22.90;34.28;96980.94;5055688;28;20047;-76
2021/05/18 15:05:06;;;;;;;12.27;1.70;;;;;;;23.12;33.49;96974.59;5072981;28;20483;-76
2021/05/18 15:07:32;;;;;;;10.10;2.65;;;;;;;23.26;34.59;96972.06;5055908;28;20023;-75
2021/05/18 15:09:58;;;;;;;7.22;1.45;;;;;;;23.14;34.22;96971.66;5072908;28;20024;-75
2021/05/18 15:12:24;;;;;;;2.55;1.05;;;;;;;23.16;32.58;96956.78;5072790;28;20510;-75
2021/05/18 15:14:49;;;;;;;5.65;0.77;;;;;;;23.32;31.43;96941.28;5073276;28;20122;-76
2021/05/18 15:17:15;;;;;;;2.17;0.50;;;;;;;23.26;32.07;96951.03;5089571;28;20061;-76
2021/05/18 15:19:41;;;;;;;6.10;1.30;;;;;;;23.31;32.83;96969.59;5072351;28;20534;-76
2021/05/18 15:22:09;;;;;;;4.53;1.20;;;;;;;23.28;34.34;96969.97;5073058;28;20107;-76
2021/05/18 15:24:34;;;;;;;2.20;1.40;;;;;;;22.97;33.61;96964.69;5073897;28;20032;-75
2021/05/18 15:27:00;;;;;;;3.65;1.63;;;;;;;22.81;34.56;96956.66;5057094;28;20043;-75
2021/05/18 15:29:26;;;;;;;6.00;2.45;;;;;;;22.70;33.80;96941.59;5057758;28;20059;-76
2021/05/18 15:31:51;;;;;;;5.82;1.75;;;;;;;22.62;35.01;96958.00;5058353;28;20039;-75
2021/05/18 15:34:18;;;;;;;6.80;1.70;;;;;;;22.63;34.52;96957.81;5091690;28;20031;-76
2021/05/18 15:36:44;;;;;;;11.20;4.93;;;;;;;22.44;35.29;96960.19;5074621;28;20414;-76
2021/05/18 15:39:10;;;;;;;19.42;5.65;;;;;;;22.42;37.09;96971.31;5058451;28;20024;-75
2021/05/18 15:41:35;;;;;;;67.43;23.15;;;;;;;22.22;33.55;96961.91;5091486;28;20407;-76
2021/05/18 15:44:02;;;;;;;26.52;10.18;;;;;;;21.98;35.14;96949.31;5091352;28;20028;-77
2021/05/18 15:46:28;;;;;;;41.30;15.02;;;;;;;21.78;34.57;96960.81;5057822;28;20718;-77
2021/05/18 15:48:54;;;;;;;28.48;9.70;;;;;;;21.66;33.89;96963.06;5058012;28;20024;-74
2021/05/18 15:51:19;;;;;;;31.77;9.98;;;;;;;21.66;36.42;96965.78;5091122;28;20040;-74
2021/05/18 15:53:45;;;;;;;31.45;10.93;;;;;;;21.69;34.33;96965.44;5057487;28;20034;-76
2021/05/18 15:56:10;;;;;;;30.42;9.65;;;;;;;21.71;34.64;96951.66;5057737;28;20020;-75
2021/05/18 15:58:36;;;;;;;38.25;13.45;;;;;;;21.78;35.68;96974.44;5057335;28;20060;-75
2021/05/18 16:01:05;;;;;;;12.77;5.20;;;;;;;21.62;33.60;96954.41;5057405;28;20501;-75
2021/05/18 16:03:33;;;;;;;8.70;3.03;;;;;;;21.52;34.56;96963.84;5057501;28;20024;-76
2021/05/18 16:06:02;;;;;;;8.00;1.63;;;;;;;21.44;34.03;96963.88;5091043;28;20084;-76
2021/05/18 16:11:06;;;;;;;9.95;1.73;;;;;;;21.25;37.09;96981.47;5073844;28;20028;-75
2021/05/18 16:13:35;;;;;;;7.75;1.65;;;;;;;21.14;36.87;96984.53;5057217;28;20039;-75
2021/05/18 16:16:15;;;;;;;3.30;1.88;;;;;;;20.98;38.33;96982.69;5074513;28;20115;-75
2021/05/18 16:18:41;;;;;;;20.50;2.97;;;;;;;20.81;36.45;96975.59;5064818;28;20031;-75
2021/05/18 16:21:07;;;;;;;2.53;1.30;;;;;;;20.71;37.35;96964.03;5098269;28;20024;-76
2021/05/18 16:23:35;;;;;;;4.22;1.52;;;;;;;20.65;39.67;96969.31;5073852;28;20038;-76
2021/05/18 16:26:00;;;;;;;8.05;2.50;;;;;;;20.52;38.61;96964.38;5091251;28;20031;-76
2021/05/18 16:28:26;;;;;;;12.20;1.42;;;;;;;20.45;38.04;96968.84;5053806;28;20020;-76
2021/05/18 16:30:52;;;;;;;5.35;1.55;;;;;;;20.35;36.63;96971.72;5072178;28;20032;-76
2021/05/18 16:33:18;;;;;;;3.00;1.80;;;;;;;20.27;37.42;96968.16;5057066;28;20020;-75
2021/05/18 16:35:44;;;;;;;4.40;1.95;;;;;;;20.15;37.46;96956.72;5056972;28;20054;-76
2021/05/18 16:38:10;;;;;;;2.97;2.17;;;;;;;20.09;37.86;96962.00;5056894;28;20540;-75
2021/05/18 16:40:36;;;;;;;9.20;3.42;;;;;;;19.98;38.06;96977.59;5090458;28;20032;-75
2021/05/18 16:43:02;;;;;;;4.07;2.40;;;;;;;19.85;39.11;96971.78;5053119;28;20021;-76
2021/05/18 16:45:27;;;;;;;2.63;1.40;;;;;;;19.76;37.23;96961.06;5044764;28;20061;-76